createdAt,value
2023-01-07T00:01:24.119Z,5.12
2023-01-07T00:03:51.678Z,5.07
2023-01-07T00:06:25.815Z,5.04
2023-01-07T00:08:55.228Z,4.99
2023-01-07T00:11:38.965Z,5.04
2023-01-07T00:14:07.682Z,4.98
2023-01-07T00:16:35.253Z,5.13
2023-01-07T00:19:03.596Z,4.92
2023-01-07T00:21:30.446Z,4.89
2023-01-07T00:24:00.213Z,4.92
2023-01-07T00:26:30.141Z,4.85
2023-01-07T00:28:57.362Z,4.67
2023-01-07T00:31:27.540Z,4.70
2023-01-07T00:33:54.622Z,4.71
2023-01-07T00:36:23.537Z,4.74
2023-01-07T00:38:58.604Z,4.81
2023-01-07T00:41:25.767Z,4.65
2023-01-07T00:43:52.297Z,4.76
2023-01-07T00:46:19.503Z,4.68
2023-01-07T00:48:46.210Z,4.49
2023-01-07T00:51:14.707Z,4.53
2023-01-07T00:53:41.718Z,4.51
2023-01-07T00:56:09.849Z,4.43
2023-01-07T00:58:36.309Z,4.58
2023-01-07T01:01:03.493Z,4.52
2023-01-07T01:03:30.947Z,4.45
2023-01-07T01:06:05.629Z,4.54
2023-01-07T01:08:32.653Z,4.52
2023-01-07T01:11:06.813Z,4.56
2023-01-07T01:13:33.928Z,4.45
2023-01-07T01:16:01.060Z,4.52
2023-01-07T01:18:27.662Z,4.50
2023-01-07T01:20:55.022Z,4.29
2023-01-07T01:23:22.237Z,4.37
2023-01-07T01:25:48.704Z,4.56
2023-01-07T01:28:15.262Z,4.46
2023-01-07T01:30:41.703Z,4.45
2023-01-07T01:33:08.168Z,4.42
2023-01-07T01:35:39.694Z,4.17
2023-01-07T01:38:06.143Z,4.41
2023-01-07T01:40:32.617Z,4.48
2023-01-07T01:42:59.083Z,4.48
2023-01-07T01:45:26.134Z,4.51
2023-01-07T01:47:55.671Z,4.45
2023-01-07T01:50:43.997Z,4.53
2023-01-07T01:53:32.956Z,4.68
2023-01-07T01:56:04.905Z,4.62
2023-01-07T01:58:36.184Z,4.61
2023-01-07T02:01:03.188Z,4.67
2023-01-07T02:03:33.430Z,4.67
2023-01-07T02:07:14.386Z,4.66
2023-01-07T02:09:41.034Z,4.70
2023-01-07T02:12:13.120Z,4.54
2023-01-07T02:14:39.501Z,4.57
2023-01-07T02:17:21.823Z,4.46
2023-01-07T02:20:16.021Z,4.60
2023-01-07T02:23:23.873Z,4.68
2023-01-07T02:26:08.746Z,4.61
2023-01-07T02:29:00.127Z,4.44
2023-01-07T02:31:51.327Z,4.48
2023-01-07T02:34:39.425Z,4.55
2023-01-07T02:37:14.712Z,4.33
2023-01-07T02:39:50.154Z,4.44
2023-01-07T02:42:57.747Z,4.37
2023-01-07T03:01:34.469Z,4.32
2023-01-07T03:07:39.486Z,4.44
2023-01-07T03:10:13.708Z,4.44
2023-01-07T03:12:52.331Z,4.33
2023-01-07T03:15:41.811Z,4.33
2023-01-07T03:20:55.904Z,4.39
2023-01-07T03:23:26.382Z,4.31
2023-01-07T03:25:55.677Z,4.41
2023-01-07T03:28:25.747Z,4.43
2023-01-07T03:30:55.388Z,4.47
2023-01-07T03:33:27.883Z,4.47
2023-01-07T03:35:57.895Z,4.45
2023-01-07T03:38:27.357Z,4.36
2023-01-07T03:40:54.629Z,4.47
2023-01-07T03:43:23.098Z,4.68
2023-01-07T03:45:52.443Z,4.66
2023-01-07T03:48:19.197Z,4.74
2023-01-07T03:50:45.639Z,4.60
2023-01-07T03:53:12.080Z,4.53
2023-01-07T03:55:38.497Z,4.69
2023-01-07T03:58:05.019Z,4.57
2023-01-07T04:00:31.568Z,4.71
2023-01-07T04:02:58.038Z,4.52
2023-01-07T04:05:24.518Z,4.42
2023-01-07T04:07:50.945Z,4.31
2023-01-07T04:10:17.418Z,4.45
2023-01-07T04:12:43.881Z,4.48
2023-01-07T04:15:10.822Z,4.34
2023-01-07T04:17:37.268Z,4.36
2023-01-07T04:20:04.041Z,4.29
2023-01-07T04:22:30.620Z,4.44
2023-01-07T04:24:57.968Z,4.36
2023-01-07T04:29:59.604Z,4.51
2023-01-07T04:32:26.149Z,4.39
2023-01-07T04:34:52.593Z,4.47
2023-01-07T04:37:19.064Z,4.42
2023-01-07T04:39:45.531Z,4.33
2023-01-07T04:42:12.091Z,4.57
2023-01-07T04:44:38.509Z,4.76
2023-01-07T04:47:04.968Z,4.50
2023-01-07T04:49:31.448Z,4.50
2023-01-07T04:51:57.895Z,4.55
2023-01-07T04:54:24.438Z,4.47
2023-01-07T04:56:50.892Z,4.69
2023-01-07T04:59:17.360Z,4.68
2023-01-07T05:01:43.912Z,4.68
2023-01-07T05:04:10.544Z,4.76
2023-01-07T05:06:37.072Z,4.68
2023-01-07T05:09:03.601Z,4.72
2023-01-07T05:11:30.147Z,4.94
2023-01-07T05:14:00.306Z,4.92
2023-01-07T05:16:26.753Z,4.71
2023-01-07T05:18:53.236Z,4.84
2023-01-07T05:21:19.709Z,4.68
2023-01-07T05:23:46.180Z,4.73
2023-01-07T05:26:12.679Z,4.76
2023-01-07T05:28:39.151Z,4.74
2023-01-07T05:31:05.674Z,4.71
2023-01-07T05:33:32.206Z,4.79
2023-01-07T05:35:58.745Z,4.85
2023-01-07T05:38:25.228Z,4.85
2023-01-07T05:40:51.839Z,5.09
2023-01-07T05:43:18.444Z,5.19
2023-01-07T05:45:46.276Z,5.12
2023-01-07T05:48:13.604Z,5.08
2023-01-07T05:50:40.223Z,5.12
2023-01-07T05:53:06.679Z,5.07
2023-01-07T05:55:33.432Z,5.15
2023-01-07T05:57:59.919Z,5.10
2023-01-07T06:00:26.585Z,5.12
2023-01-07T06:02:53.200Z,5.01
2023-01-07T06:05:19.725Z,5.04
2023-01-07T06:07:46.210Z,5.03
2023-01-07T06:10:12.622Z,5.03
2023-01-07T06:12:39.087Z,5.03
2023-01-07T06:15:07.305Z,4.92
2023-01-07T06:17:34.351Z,4.87
2023-01-07T06:20:01.251Z,4.95
2023-01-07T06:22:27.831Z,4.98
2023-01-07T06:24:54.789Z,5.13
2023-01-07T06:27:21.396Z,5.08
2023-01-07T06:29:47.888Z,4.97
2023-01-07T06:32:14.364Z,4.97
2023-01-07T06:34:40.860Z,5.19
2023-01-07T06:37:07.406Z,4.95
2023-01-07T06:39:33.867Z,5.03
2023-01-07T06:42:00.292Z,5.01
2023-01-07T06:44:26.913Z,4.86
2023-01-07T06:46:53.536Z,5.06
2023-01-07T06:49:19.931Z,4.85
2023-01-07T06:51:46.391Z,4.86
2023-01-07T06:54:12.953Z,4.80
2023-01-07T06:56:39.409Z,4.67
2023-01-07T06:59:05.821Z,4.81
2023-01-07T07:01:32.458Z,4.89
2023-01-07T07:03:58.989Z,4.81
2023-01-07T07:06:25.467Z,4.76
2023-01-07T07:08:51.884Z,4.90
2023-01-07T07:11:18.439Z,4.98
2023-01-07T07:13:44.917Z,4.87
2023-01-07T07:16:11.459Z,4.98
2023-01-07T07:18:37.959Z,4.99
2023-01-07T07:21:04.527Z,5.05
2023-01-07T07:23:31.005Z,5.11
2023-01-07T07:25:57.444Z,5.00
2023-01-07T07:28:24.039Z,5.02
2023-01-07T07:30:50.484Z,4.90
2023-01-07T07:33:19.397Z,5.03
2023-01-07T07:35:46.260Z,5.01
2023-01-07T07:38:12.740Z,4.86
2023-01-07T07:40:39.274Z,4.95
2023-01-07T07:43:11.455Z,4.99
2023-01-07T07:45:39.584Z,4.96
2023-01-07T07:48:07.647Z,4.82
2023-01-07T07:50:35.152Z,4.88
2023-01-07T07:53:01.947Z,4.99
2023-01-07T07:55:28.731Z,4.87
2023-01-07T07:57:56.687Z,4.85
2023-01-07T08:00:24.327Z,4.83
2023-01-07T08:02:50.868Z,5.04
2023-01-07T08:05:17.533Z,4.98
2023-01-07T08:07:43.969Z,4.88
2023-01-07T08:10:10.466Z,5.10
2023-01-07T08:12:38.325Z,5.02
2023-01-07T08:15:06.318Z,5.05
2023-01-07T08:17:33.004Z,5.00
2023-01-07T08:19:59.544Z,5.03
2023-01-07T08:22:26.145Z,5.12
2023-01-07T08:24:52.716Z,5.19
2023-01-07T08:27:19.341Z,5.28
2023-01-07T08:29:45.905Z,5.02
2023-01-07T08:32:12.897Z,5.11
2023-01-07T08:34:39.373Z,5.08
2023-01-07T08:37:05.816Z,5.27
2023-01-07T08:39:32.393Z,5.41
2023-01-07T08:41:58.845Z,5.56
2023-01-07T08:44:25.290Z,5.60
2023-01-07T08:46:53.507Z,5.59
2023-01-07T08:49:20.243Z,5.55
2023-01-07T08:51:46.822Z,5.61
2023-01-07T08:54:13.698Z,5.57
2023-01-07T08:56:40.138Z,5.61
2023-01-07T08:59:06.723Z,5.48
2023-01-07T09:01:33.331Z,5.70
2023-01-07T09:04:00.195Z,5.60
2023-01-07T09:06:26.673Z,5.38
2023-01-07T09:08:53.129Z,5.60
2023-01-07T09:11:19.691Z,5.63
2023-01-07T09:13:46.392Z,5.66
2023-01-07T09:16:13.063Z,5.73
2023-01-07T09:18:39.638Z,5.82
2023-01-07T09:21:06.447Z,5.68
2023-01-07T09:23:32.959Z,5.76
2023-01-07T09:25:59.480Z,5.69
2023-01-07T09:28:25.943Z,5.95
2023-01-07T09:30:52.437Z,5.63
2023-01-07T09:33:18.915Z,5.73
2023-01-07T09:35:45.429Z,5.86
2023-01-07T09:38:11.908Z,5.82
2023-01-07T09:40:41.295Z,5.84
2023-01-07T09:43:27.249Z,5.84
2023-01-07T09:46:15.260Z,5.91
2023-01-07T09:48:54.121Z,6.22
2023-01-07T09:51:43.868Z,6.05
2023-01-07T09:54:26.185Z,6.10
2023-01-07T09:56:52.797Z,6.26
2023-01-07T09:59:19.353Z,6.18
2023-01-07T10:01:59.174Z,6.30
2023-01-07T10:04:36.336Z,6.18
2023-01-07T10:07:23.016Z,6.19
2023-01-07T10:10:08.173Z,6.27
2023-01-07T10:12:45.368Z,6.41
2023-01-07T10:15:22.249Z,6.19
2023-01-07T10:18:10.453Z,6.35
2023-01-07T10:20:46.359Z,6.37
2023-01-07T10:23:32.712Z,6.47
2023-01-07T10:26:01.375Z,6.62
2023-01-07T10:28:44.582Z,6.55
2023-01-07T10:31:21.552Z,6.67
2023-01-07T10:33:50.104Z,6.74
2023-01-07T10:36:34.848Z,6.66
2023-01-07T10:39:31.071Z,6.87
2023-01-07T10:42:20.658Z,6.63
2023-01-07T10:45:15.710Z,6.46
2023-01-07T10:48:00.868Z,6.54
2023-01-07T10:50:27.327Z,6.62
2023-01-07T10:53:10.257Z,6.87
2023-01-07T10:55:48.737Z,7.09
2023-01-07T10:58:15.162Z,7.16
2023-01-07T11:00:42.240Z,7.17
2023-01-07T11:03:24.979Z,7.01
2023-01-07T11:06:03.113Z,7.03
2023-01-07T11:08:36.885Z,7.11
2023-01-07T11:11:04.876Z,7.24
2023-01-07T11:13:36.048Z,7.28
2023-01-07T11:16:21.356Z,7.23
2023-01-07T11:18:58.522Z,7.19
2023-01-07T11:21:43.162Z,7.68
2023-01-07T11:24:19.825Z,7.62
2023-01-07T11:26:46.631Z,7.36
2023-01-07T11:29:25.931Z,7.44
2023-01-07T11:31:54.267Z,7.69
2023-01-07T11:34:28.452Z,7.42
2023-01-07T11:36:54.989Z,7.65
2023-01-07T11:39:27.595Z,7.73
2023-01-07T11:41:57.428Z,7.53
2023-01-07T11:44:25.021Z,7.41
2023-01-07T11:46:52.626Z,7.58
2023-01-07T11:49:28.957Z,7.36
2023-01-07T11:51:56.347Z,7.52
2023-01-07T11:54:26.182Z,7.57
2023-01-07T11:56:55.187Z,7.53
2023-01-07T11:59:30.085Z,7.41
2023-01-07T12:02:01.766Z,7.49
2023-01-07T12:04:28.261Z,7.37
2023-01-07T12:07:01.511Z,7.29
2023-01-07T12:09:34.379Z,7.39
2023-01-07T12:12:07.772Z,7.38
2023-01-07T12:14:38.857Z,7.35
2023-01-07T12:17:20.472Z,7.57
2023-01-07T12:20:27.875Z,7.62
2023-01-07T12:23:04.765Z,7.36
2023-01-07T12:25:45.454Z,7.44
2023-01-07T12:28:18.484Z,7.34
2023-01-07T12:30:59.926Z,7.46
2023-01-07T12:34:00.410Z,7.55
2023-01-07T12:36:29.728Z,7.22
2023-01-07T12:39:00.929Z,7.52
2023-01-07T12:41:33.343Z,7.52
2023-01-07T12:44:10.270Z,7.38
2023-01-07T12:46:55.010Z,7.46
2023-01-07T12:50:09.793Z,7.32
2023-01-07T12:52:51.309Z,7.45
2023-01-07T12:55:42.369Z,7.50
2023-01-07T12:58:17.605Z,7.73
2023-01-07T13:01:02.369Z,7.80
2023-01-07T13:03:39.312Z,7.73
2023-01-07T13:06:16.356Z,7.68
2023-01-07T13:09:09.333Z,7.55
2023-01-07T13:12:03.783Z,7.75
2023-01-07T13:14:47.605Z,7.68
2023-01-07T13:17:26.050Z,7.75
2023-01-07T13:19:53.013Z,8.02
2023-01-07T13:22:34.039Z,7.72
2023-01-07T13:25:26.083Z,7.58
2023-01-07T13:28:25.785Z,7.50
2023-01-07T13:31:10.880Z,7.55
2023-01-07T13:33:55.254Z,7.68
2023-01-07T13:36:35.171Z,7.63
2023-01-07T13:39:46.271Z,7.39
2023-01-07T13:42:44.968Z,7.51
2023-01-07T13:45:15.850Z,7.58
2023-01-07T13:47:49.425Z,7.62
2023-01-07T13:50:31.792Z,7.57
2023-01-07T13:53:05.464Z,7.54
2023-01-07T13:55:41.336Z,7.80
2023-01-07T13:58:30.830Z,7.63
2023-01-07T14:01:09.295Z,7.86
2023-01-07T14:03:53.591Z,7.76
2023-01-07T14:06:20.357Z,7.53
2023-01-07T14:08:59.521Z,7.38
2023-01-07T14:11:42.137Z,7.32
2023-01-07T14:14:37.902Z,7.52
2023-01-07T14:17:13.521Z,7.44
2023-01-07T14:20:04.815Z,7.30
2023-01-07T14:22:49.368Z,7.33
2023-01-07T14:25:30.180Z,7.42
2023-01-07T14:28:08.820Z,7.38
2023-01-07T14:30:43.747Z,7.42
2023-01-07T14:33:19.323Z,7.38
2023-01-07T14:36:07.014Z,7.42
2023-01-07T14:38:33.499Z,7.42
2023-01-07T14:41:03.062Z,7.35
2023-01-07T14:43:47.601Z,7.34
2023-01-07T14:46:23.329Z,7.28
2023-01-07T14:49:02.403Z,7.32
2023-01-07T14:52:10.358Z,7.23
2023-01-07T14:55:10.488Z,7.45
2023-01-07T14:57:55.525Z,7.17
2023-01-07T15:00:53.200Z,7.31
2023-01-07T15:03:49.964Z,7.15
2023-01-07T15:06:28.984Z,7.15
2023-01-07T15:09:30.570Z,7.12
2023-01-07T15:12:19.811Z,7.27
2023-01-07T15:15:22.356Z,7.21
2023-01-07T15:17:49.019Z,7.10
2023-01-07T15:20:15.606Z,6.98
2023-01-07T15:22:48.478Z,7.05
2023-01-07T15:25:55.363Z,7.06
2023-01-07T15:28:48.582Z,7.08
2023-01-07T15:31:33.203Z,6.97
2023-01-07T15:34:20.081Z,7.22
2023-01-07T15:36:51.879Z,7.05
2023-01-07T15:39:39.748Z,7.00
2023-01-07T15:42:14.417Z,6.90
2023-01-07T15:44:42.099Z,6.94
2023-01-07T15:47:36.850Z,6.99
2023-01-07T15:50:22.057Z,6.89
2023-01-07T15:52:50.925Z,6.79
2023-01-07T15:55:34.530Z,6.86
2023-01-07T15:58:06.991Z,6.90
2023-01-07T16:00:34.850Z,6.67
2023-01-07T16:03:03.369Z,6.85
2023-01-07T16:05:30.518Z,6.88
2023-01-07T16:07:59.420Z,6.76
2023-01-07T16:10:30.035Z,6.86
2023-01-07T16:13:00.109Z,6.85
2023-01-07T16:15:30.673Z,6.88
2023-01-07T16:18:19.130Z,6.86
2023-01-07T16:20:58.328Z,6.83
2023-01-07T16:23:27.690Z,6.56
2023-01-07T16:26:15.194Z,6.57
2023-01-07T16:28:48.907Z,6.70
2023-01-07T16:31:18.606Z,6.85
2023-01-07T16:33:46.476Z,6.78
2023-01-07T16:36:17.470Z,6.87
2023-01-07T16:38:46.883Z,6.78
2023-01-07T16:41:27.914Z,6.48
2023-01-07T16:43:56.708Z,6.40
2023-01-07T16:46:49.127Z,6.56
2023-01-07T16:49:22.540Z,6.71
2023-01-07T16:52:06.408Z,6.64
2023-01-07T16:54:37.864Z,6.82
2023-01-07T16:57:34.211Z,6.47
2023-01-07T17:00:04.160Z,6.77
2023-01-07T17:02:40.129Z,6.95
2023-01-07T17:05:18.692Z,6.47
2023-01-07T17:07:49.613Z,6.73
2023-01-07T17:10:24.835Z,6.74
2023-01-07T17:13:14.723Z,6.63
2023-01-07T17:15:42.893Z,6.87
2023-01-07T17:18:12.350Z,6.95
2023-01-07T17:20:48.101Z,6.94
2023-01-07T17:23:30.067Z,6.93
2023-01-07T17:26:04.173Z,6.57
2023-01-07T17:28:33.697Z,6.51
2023-01-07T17:31:00.835Z,6.79
2023-01-07T17:33:27.678Z,6.23
2023-01-07T17:35:54.365Z,6.66
2023-01-07T17:38:20.974Z,6.78
2023-01-07T17:40:48.136Z,6.88
2023-01-07T17:43:36.884Z,6.93
2023-01-07T17:46:09.290Z,6.71
2023-01-07T17:48:35.879Z,6.88
2023-01-07T17:51:04.523Z,6.71
2023-01-07T17:53:52.979Z,6.36
2023-01-07T17:56:19.606Z,6.86
2023-01-07T17:58:46.131Z,6.78
2023-01-07T18:01:16.434Z,6.36
2023-01-07T18:03:46.187Z,6.43
2023-01-07T18:06:21.552Z,6.61
2023-01-07T18:08:49.873Z,6.83
2023-01-07T18:11:41.775Z,6.67
2023-01-07T18:14:08.256Z,6.78
2023-01-07T18:16:34.884Z,6.42
2023-01-07T18:19:01.616Z,6.71
2023-01-07T18:21:28.078Z,6.63
2023-01-07T18:23:54.507Z,6.83
2023-01-07T18:26:21.367Z,6.46
2023-01-07T18:28:48.360Z,6.37
2023-01-07T18:31:15.465Z,6.37
2023-01-07T18:33:42.909Z,6.79
2023-01-07T18:36:10.505Z,6.61
2023-01-07T18:38:37.039Z,6.56
2023-01-07T18:41:04.037Z,6.41
2023-01-07T18:43:30.567Z,6.68
2023-01-07T18:45:57.179Z,6.34
2023-01-07T18:48:23.638Z,6.55
2023-01-07T18:50:50.378Z,6.64
2023-01-07T18:53:18.811Z,6.69
2023-01-07T18:55:46.368Z,6.63
2023-01-07T18:58:14.215Z,6.63
2023-01-07T19:00:41.473Z,6.87
2023-01-07T19:03:08.034Z,6.68
2023-01-07T19:05:34.531Z,6.81
2023-01-07T19:08:01.022Z,6.78
2023-01-07T19:10:27.497Z,6.69
2023-01-07T19:12:53.932Z,6.39
2023-01-07T19:15:20.499Z,6.74
2023-01-07T19:17:46.969Z,6.70
2023-01-07T19:20:15.206Z,6.68
2023-01-07T19:22:42.002Z,6.75
2023-01-07T19:25:09.379Z,6.64
2023-01-07T19:27:35.962Z,6.72
2023-01-07T19:30:02.476Z,6.64
2023-01-07T19:32:30.288Z,6.46
2023-01-07T19:34:56.784Z,6.52
2023-01-07T19:37:23.245Z,6.55
2023-01-07T19:39:49.684Z,6.74
2023-01-07T19:42:16.142Z,6.40
2023-01-07T19:44:42.635Z,6.45
2023-01-07T19:47:09.415Z,6.63
2023-01-07T19:49:36.196Z,6.77
2023-01-07T19:52:02.735Z,6.71
2023-01-07T19:54:29.265Z,6.77
2023-01-07T19:56:55.712Z,6.80
2023-01-07T19:59:22.603Z,6.47
2023-01-07T20:01:49.962Z,6.79
2023-01-07T20:04:16.777Z,6.54
2023-01-07T20:06:43.474Z,6.45
2023-01-07T20:09:12.847Z,6.47
2023-01-07T20:11:39.818Z,6.47
2023-01-07T20:14:10.729Z,6.24
2023-01-07T20:16:39.421Z,6.33
2023-01-07T20:19:06.538Z,6.50
2023-01-07T20:21:33.429Z,6.22
2023-01-07T20:24:00.119Z,6.49
2023-01-07T20:26:29.009Z,6.23
2023-01-07T20:28:56.617Z,6.45
2023-01-07T20:31:25.259Z,6.36
2023-01-07T20:33:52.185Z,6.31
2023-01-07T20:36:21.417Z,6.52
2023-01-07T20:38:47.936Z,6.34
2023-01-07T20:41:20.290Z,6.56
2023-01-07T20:43:58.393Z,6.42
2023-01-07T20:46:25.793Z,6.14
2023-01-07T20:48:52.439Z,6.39
2023-01-07T20:51:19.758Z,6.28
2023-01-07T20:53:49.346Z,6.39
2023-01-07T20:56:18.903Z,6.31
2023-01-07T20:58:46.031Z,6.36
2023-01-07T21:01:14.566Z,6.37
2023-01-07T21:03:41.786Z,6.24
2023-01-07T21:06:13.254Z,6.37
2023-01-07T21:08:39.876Z,6.20
2023-01-07T21:11:14.149Z,6.36
2023-01-07T21:13:41.403Z,6.26
2023-01-07T21:16:08.336Z,6.18
2023-01-07T21:18:35.256Z,6.40
2023-01-07T21:21:09.541Z,6.45
2023-01-07T21:23:36.017Z,6.50
2023-01-07T21:26:02.524Z,6.42
2023-01-07T21:28:28.962Z,6.47
2023-01-07T21:30:55.487Z,6.37
2023-01-07T21:33:21.971Z,6.42
2023-01-07T21:35:48.534Z,6.46
2023-01-07T21:38:15.028Z,6.25
2023-01-07T21:40:41.500Z,6.52
2023-01-07T21:43:07.953Z,6.38
2023-01-07T21:45:34.414Z,6.17
2023-01-07T21:48:00.927Z,6.15
2023-01-07T21:50:27.458Z,6.41
2023-01-07T21:52:53.927Z,6.36
2023-01-07T21:55:20.421Z,6.38
2023-01-07T21:57:46.860Z,6.28
2023-01-07T22:00:14.074Z,6.36
2023-01-07T22:02:40.515Z,6.12
2023-01-07T22:05:07.596Z,6.48
2023-01-07T22:07:34.092Z,6.46
2023-01-07T22:10:00.611Z,6.45
2023-01-07T22:12:27.114Z,6.42
2023-01-07T22:14:53.710Z,6.32
2023-01-07T22:17:20.158Z,6.38
2023-01-07T22:19:46.712Z,6.27
2023-01-07T22:22:13.210Z,6.44
2023-01-07T22:24:39.710Z,6.47
2023-01-07T22:27:06.308Z,6.39
2023-01-07T22:29:33.570Z,6.52
2023-01-07T22:31:59.990Z,6.18
2023-01-07T22:34:26.569Z,6.04
2023-01-07T22:37:16.102Z,6.28
2023-01-07T22:39:46.920Z,6.18
2023-01-07T22:42:24.722Z,6.16
2023-01-07T22:44:56.374Z,6.08
2023-01-07T22:47:26.465Z,6.30
2023-01-07T22:49:54.052Z,5.99
2023-01-07T22:52:21.139Z,6.30
2023-01-07T22:54:47.706Z,6.30
2023-01-07T22:57:14.542Z,6.20
2023-01-07T22:59:41.042Z,5.99
2023-01-07T23:02:07.672Z,5.79
2023-01-07T23:04:34.150Z,5.98
2023-01-07T23:07:00.632Z,5.82
2023-01-07T23:09:27.216Z,6.02
2023-01-07T23:11:59.211Z,6.00
2023-01-07T23:14:27.413Z,6.03
2023-01-07T23:16:54.386Z,5.93
2023-01-07T23:19:21.661Z,6.05
2023-01-07T23:21:52.745Z,5.96
2023-01-07T23:24:19.669Z,5.98
2023-01-07T23:26:48.634Z,5.91
2023-01-07T23:29:15.630Z,5.93
2023-01-07T23:31:42.115Z,5.81
2023-01-07T23:34:08.867Z,5.70
2023-01-07T23:36:38.906Z,5.56
2023-01-07T23:39:05.802Z,5.76
2023-01-07T23:41:33.061Z,5.81
2023-01-07T23:43:59.512Z,5.52
2023-01-07T23:46:25.975Z,5.69
2023-01-07T23:48:52.391Z,5.57
2023-01-07T23:51:20.516Z,5.66
2023-01-07T23:53:47.764Z,5.39
2023-01-07T23:56:14.918Z,5.39
2023-01-07T23:58:41.376Z,5.69
